createdAt,value
2023-02-02T00:00:39.589Z,102018.88
2023-02-02T00:03:01.164Z,102025.97
2023-02-02T00:05:23.009Z,102017.75
2023-02-02T00:07:44.786Z,102017.47
2023-02-02T00:10:06.928Z,102025.38
2023-02-02T00:12:28.547Z,102019.34
2023-02-02T00:14:50.129Z,102027.59
2023-02-02T00:17:11.751Z,102029.19
2023-02-02T00:19:33.593Z,102029.75
2023-02-02T00:21:56.243Z,102027.53
2023-02-02T00:24:19.120Z,102023.13
2023-02-02T00:26:45.875Z,102023.97
2023-02-02T00:29:14.609Z,102034.63
2023-02-02T00:31:36.356Z,102034.63
2023-02-02T00:33:57.992Z,102023.66
2023-02-02T00:36:21.774Z,102027.53
2023-02-02T00:38:43.812Z,102030.81
2023-02-02T00:41:05.957Z,102045.63
2023-02-02T00:43:27.521Z,102040.13
2023-02-02T00:45:50.021Z,102040.13
2023-02-02T00:48:11.645Z,102043.41
2023-02-02T00:50:33.391Z,102044.22
2023-02-02T00:52:58.929Z,102043.41
2023-02-02T00:55:22.235Z,102047.78
2023-02-02T00:57:44.600Z,102050.31
2023-02-02T01:00:11.336Z,102045.41
2023-02-02T01:02:35.305Z,102047.91
2023-02-02T01:04:56.915Z,102038.03
2023-02-02T01:07:18.609Z,102036.69
2023-02-02T01:09:40.233Z,102036.16
2023-02-02T01:12:01.924Z,102036.97
2023-02-02T01:14:23.573Z,102038.09
2023-02-02T01:16:45.350Z,102039.78
2023-02-02T01:19:06.982Z,102036.81
2023-02-02T01:21:28.697Z,102035.16
2023-02-02T01:23:50.438Z,102029.13
2023-02-02T01:26:14.524Z,102038.72
2023-02-02T01:28:36.833Z,102036.50
2023-02-02T01:30:58.830Z,102039.78
2023-02-02T01:33:21.625Z,102038.66
2023-02-02T01:35:56.083Z,102044.69
2023-02-02T01:38:19.228Z,102036.50
2023-02-02T01:40:54.255Z,102033.22
2023-02-02T01:43:50.265Z,102031.00
2023-02-02T01:46:17.748Z,102038.44
2023-02-02T01:48:44.187Z,102029.00
2023-02-02T01:51:17.313Z,102032.28
2023-02-02T01:53:39.209Z,102033.13
2023-02-02T01:56:05.396Z,102033.63
2023-02-02T01:58:35.356Z,102030.88
2023-02-02T02:00:57.326Z,102038.03
2023-02-02T02:03:24.097Z,102041.31
2023-02-02T02:06:05.726Z,102040.47
2023-02-02T02:08:35.759Z,102035.81
2023-02-02T02:10:58.211Z,102027.00
2023-02-02T02:13:43.853Z,102035.22
2023-02-02T02:16:22.921Z,102041.53
2023-02-02T02:19:19.296Z,102022.59
2023-02-02T02:22:32.444Z,102025.88
2023-02-02T02:25:59.188Z,102034.41
2023-02-02T02:29:06.454Z,102023.19
2023-02-02T02:31:31.683Z,102036.38
2023-02-02T02:34:02.415Z,102027.03
2023-02-02T02:37:04.001Z,102030.31
2023-02-02T02:39:39.240Z,102041.88
2023-02-02T02:42:15.771Z,102051.78
2023-02-02T02:44:37.713Z,102046.28
2023-02-02T02:47:01.114Z,102044.88
2023-02-02T02:49:23.516Z,102031.13
2023-02-02T02:51:51.565Z,102033.56
2023-02-02T02:54:35.473Z,102047.03
2023-02-02T02:57:28.947Z,102052.25
2023-02-02T03:00:30.671Z,102048.97
2023-02-02T03:03:03.724Z,102047.91
2023-02-02T03:05:49.369Z,102043.22
2023-02-02T03:08:22.175Z,102038.03
2023-02-02T03:10:46.811Z,102039.66
2023-02-02T03:13:11.117Z,102036.38
2023-02-02T03:15:32.903Z,102042.47
2023-02-02T03:17:54.920Z,102033.16
2023-02-02T03:20:17.230Z,102024.91
2023-02-02T03:22:38.918Z,102031.75
2023-02-02T03:25:00.545Z,102026.03
2023-02-02T03:27:22.224Z,102021.66
2023-02-02T03:29:43.855Z,102020.00
2023-02-02T03:32:05.633Z,102019.47
2023-02-02T03:34:27.211Z,102020.59
2023-02-02T03:36:48.768Z,102017.31
2023-02-02T03:39:10.476Z,102025.63
2023-02-02T03:41:32.078Z,102032.44
2023-02-02T03:43:53.685Z,102035.19
2023-02-02T03:46:15.371Z,102040.16
2023-02-02T03:48:38.799Z,102034.97
2023-02-02T03:51:00.383Z,102046.25
2023-02-02T03:53:23.207Z,102059.44
2023-02-02T03:55:44.808Z,102070.38
2023-02-02T03:58:06.424Z,102077.22
2023-02-02T04:00:28.050Z,102080.50
2023-02-02T04:02:49.743Z,102080.22
2023-02-02T04:05:11.424Z,102074.13
2023-02-02T04:07:33.205Z,102077.69
2023-02-02T04:09:54.776Z,102082.91
2023-02-02T04:12:16.403Z,102078.78
2023-02-02T04:14:38.058Z,102072.97
2023-02-02T04:16:59.703Z,102064.44
2023-02-02T04:19:21.351Z,102070.75
2023-02-02T04:21:43.105Z,102067.72
2023-02-02T04:24:07.193Z,102069.34
2023-02-02T04:26:28.935Z,102059.19
2023-02-02T04:28:50.595Z,102060.56
2023-02-02T04:31:12.387Z,102075.09
2023-02-02T04:33:35.395Z,102068.78
2023-02-02T04:35:57.181Z,102070.41
2023-02-02T04:38:19.074Z,102066.84
2023-02-02T04:40:43.366Z,102067.66
2023-02-02T04:43:04.977Z,102063.00
2023-02-02T04:45:26.986Z,102066.28
2023-02-02T04:47:48.839Z,102062.19
2023-02-02T04:50:12.134Z,102056.97
2023-02-02T04:52:33.906Z,102062.44
2023-02-02T04:54:55.552Z,102067.38
2023-02-02T04:57:17.701Z,102061.38
2023-02-02T04:59:42.200Z,102058.09
2023-02-02T05:02:04.032Z,102067.44
2023-02-02T05:04:25.860Z,102065.78
2023-02-02T05:06:47.485Z,102062.22
2023-02-02T05:09:09.345Z,102065.25
2023-02-02T05:11:31.098Z,102060.59
2023-02-02T05:13:55.038Z,102068.31
2023-02-02T05:16:17.100Z,102067.47
2023-02-02T05:18:38.868Z,102062.56
2023-02-02T05:21:02.838Z,102052.38
2023-02-02T05:23:24.422Z,102052.97
2023-02-02T05:25:53.691Z,102063.16
2023-02-02T05:28:15.277Z,102072.19
2023-02-02T05:30:40.485Z,102079.34
2023-02-02T05:33:02.249Z,102085.34
2023-02-02T05:35:24.915Z,102086.19
2023-02-02T05:37:46.675Z,102090.56
2023-02-02T05:40:10.045Z,102095.19
2023-02-02T05:42:31.646Z,102089.13
2023-02-02T05:44:53.264Z,102090.78
2023-02-02T05:47:14.987Z,102089.66
2023-02-02T05:49:36.620Z,102083.88
2023-02-02T05:51:59.160Z,102085.22
2023-02-02T05:54:21.159Z,102078.59
2023-02-02T05:56:42.792Z,102083.81
2023-02-02T05:59:07.418Z,102086.25
2023-02-02T06:01:29.224Z,102085.44
2023-02-02T06:03:51.028Z,102086.84
2023-02-02T06:06:13.100Z,102085.22
2023-02-02T06:08:35.841Z,102091.25
2023-02-02T06:10:57.452Z,102089.91
2023-02-02T06:13:19.150Z,102083.56
2023-02-02T06:15:43.102Z,102092.34
2023-02-02T06:18:06.842Z,102092.06
2023-02-02T06:20:29.472Z,102091.25
2023-02-02T06:22:51.700Z,102094.00
2023-02-02T06:25:13.303Z,102088.78
2023-02-02T06:27:34.971Z,102090.72
2023-02-02T06:29:56.585Z,102100.59
2023-02-02T06:32:18.214Z,102092.06
2023-02-02T06:34:39.782Z,102096.16
2023-02-02T06:37:01.536Z,102097.78
2023-02-02T06:39:23.135Z,102092.88
2023-02-02T06:41:46.656Z,102092.34
2023-02-02T06:44:08.522Z,102107.75
2023-02-02T06:46:30.268Z,102112.13
2023-02-02T06:48:51.976Z,102120.91
2023-02-02T06:51:14.039Z,102127.47
2023-02-02T06:53:35.703Z,102116.50
2023-02-02T06:56:06.535Z,102126.66
2023-02-02T06:58:30.565Z,102125.56
2023-02-02T07:00:52.549Z,102123.09
2023-02-02T07:03:16.569Z,102131.34
2023-02-02T07:05:39.317Z,102135.22
2023-02-02T07:08:00.894Z,102128.88
2023-02-02T07:11:08.458Z,102126.44
2023-02-02T07:13:05.999Z,102133.88
2023-02-02T07:15:27.689Z,102138.53
2023-02-02T07:17:49.259Z,102138.00
2023-02-02T07:20:11.514Z,102136.91
2023-02-02T07:22:33.089Z,102141.84
2023-02-02T07:24:54.650Z,102138.56
2023-02-02T07:27:16.434Z,102139.09
2023-02-02T07:29:38.086Z,102145.19
2023-02-02T07:31:59.727Z,102137.00
2023-02-02T07:34:21.583Z,102143.59
2023-02-02T07:36:43.369Z,102136.47
2023-02-02T07:39:06.030Z,102136.75
2023-02-02T07:41:27.936Z,102152.41
2023-02-02T07:43:51.218Z,102150.47
2023-02-02T07:46:14.318Z,102147.44
2023-02-02T07:48:37.040Z,102151.59
2023-02-02T07:51:04.263Z,102167.53
2023-02-02T07:53:27.109Z,102171.69
2023-02-02T07:55:48.702Z,102170.56
2023-02-02T07:58:10.870Z,102171.91
2023-02-02T08:00:32.711Z,102175.50
2023-02-02T08:02:54.460Z,102173.84
2023-02-02T08:05:16.545Z,102174.44
2023-02-02T08:07:38.364Z,102183.22
2023-02-02T08:10:00.112Z,102174.16
2023-02-02T08:12:24.828Z,102173.84
2023-02-02T08:14:47.496Z,102180.41
2023-02-02T08:17:09.317Z,102187.53
2023-02-02T08:19:30.947Z,102188.34
2023-02-02T08:21:52.491Z,102188.06
2023-02-02T08:24:14.141Z,102191.63
2023-02-02T08:26:35.919Z,102188.03
2023-02-02T08:29:03.088Z,102196.81
2023-02-02T08:31:32.877Z,102195.47
2023-02-02T08:33:55.007Z,102196.53
2023-02-02T08:36:20.402Z,102208.88
2023-02-02T08:38:42.821Z,102205.00
2023-02-02T08:41:10.425Z,102200.59
2023-02-02T08:43:32.114Z,102223.13
2023-02-02T08:46:01.094Z,102227.22
2023-02-02T08:48:26.869Z,102223.88
2023-02-02T08:50:57.872Z,102231.84
2023-02-02T08:53:19.543Z,102236.81
2023-02-02T08:55:41.259Z,102237.63
2023-02-02T08:58:02.947Z,102237.91
2023-02-02T09:00:24.618Z,102240.59
2023-02-02T09:02:51.001Z,102247.75
2023-02-02T09:05:12.589Z,102247.19
2023-02-02T09:07:34.275Z,102255.97
2023-02-02T09:09:58.165Z,102255.69
2023-02-02T09:12:19.834Z,102257.91
2023-02-02T09:14:41.437Z,102266.13
2023-02-02T09:17:03.135Z,102269.69
2023-02-02T09:19:24.792Z,102271.63
2023-02-02T09:21:46.410Z,102273.81
2023-02-02T09:24:11.701Z,102279.03
2023-02-02T09:26:33.580Z,102281.19
2023-02-02T09:28:59.371Z,102285.28
2023-02-02T09:31:21.552Z,102298.75
2023-02-02T09:33:43.909Z,102289.94
2023-02-02T09:36:08.895Z,102299.53
2023-02-02T09:38:30.622Z,102296.19
2023-02-02T09:40:52.294Z,102311.31
2023-02-02T09:44:20.074Z,102309.38
2023-02-02T09:47:18.833Z,102301.38
2023-02-02T09:50:03.109Z,102310.13
2023-02-02T09:52:33.868Z,102315.31
2023-02-02T09:55:07.008Z,102309.53
2023-02-02T09:57:39.165Z,102318.84
2023-02-02T10:00:00.901Z,102310.28
2023-02-02T10:02:30.145Z,102314.41
2023-02-02T10:05:00.884Z,102327.06
2023-02-02T10:07:37.229Z,102324.84
2023-02-02T10:10:23.657Z,102328.41
2023-02-02T10:13:06.899Z,102325.38
2023-02-02T10:16:01.564Z,102329.75
2023-02-02T10:18:38.687Z,102344.91
2023-02-02T10:21:32.385Z,102329.75
2023-02-02T10:23:54.676Z,102339.66
2023-02-02T10:26:39.848Z,102344.06
2023-02-02T10:29:28.069Z,102341.63
2023-02-02T10:32:24.782Z,102338.59
2023-02-02T10:35:30.450Z,102356.19
2023-02-02T10:38:24.856Z,102347.94
2023-02-02T10:41:06.774Z,102345.72
2023-02-02T10:43:47.120Z,102353.97
2023-02-02T10:46:17.733Z,102348.22
2023-02-02T10:48:48.157Z,102357.00
2023-02-02T10:51:24.420Z,102349.25
2023-02-02T10:53:53.301Z,102351.72
2023-02-02T10:56:16.897Z,102342.59
2023-02-02T10:58:58.848Z,102350.53
2023-02-02T11:01:22.870Z,102353.50
2023-02-02T11:03:44.799Z,102356.50
2023-02-02T11:06:27.142Z,102367.00
2023-02-02T11:09:01.180Z,102358.16
2023-02-02T11:11:32.969Z,102367.53
2023-02-02T11:14:04.457Z,102373.31
2023-02-02T11:16:42.082Z,102366.69
2023-02-02T11:19:16.813Z,102355.13
2023-02-02T11:21:39.512Z,102358.19
2023-02-02T11:24:19.301Z,102360.41
2023-02-02T11:26:52.741Z,102362.56
2023-02-02T11:29:40.931Z,102358.19
2023-02-02T11:32:28.836Z,102362.06
2023-02-02T11:35:13.896Z,102357.94
2023-02-02T11:37:38.249Z,102365.09
2023-02-02T11:40:31.181Z,102361.00
2023-02-02T11:42:53.043Z,102358.25
2023-02-02T11:45:30.610Z,102351.63
2023-02-02T11:47:52.659Z,102343.09
2023-02-02T11:50:27.624Z,102347.72
2023-02-02T11:52:49.556Z,102349.13
2023-02-02T11:55:21.176Z,102346.38
2023-02-02T11:58:24.817Z,102345.78
2023-02-02T12:00:52.038Z,102341.97
2023-02-02T12:03:39.960Z,102347.19
2023-02-02T12:06:18.798Z,102349.41
2023-02-02T12:08:40.499Z,102343.03
2023-02-02T12:11:07.186Z,102353.19
2023-02-02T12:14:12.180Z,102355.66
2023-02-02T12:16:53.385Z,102348.19
2023-02-02T12:19:39.817Z,102348.75
2023-02-02T12:22:33.566Z,102354.25
2023-02-02T12:25:39.807Z,102357.03
2023-02-02T12:28:22.797Z,102356.50
2023-02-02T12:31:08.077Z,102351.56
2023-02-02T12:34:08.611Z,102354.31
2023-02-02T12:37:17.599Z,102352.69
2023-02-02T12:40:38.557Z,102345.56
2023-02-02T12:43:23.496Z,102341.44
2023-02-02T12:46:12.945Z,102342.28
2023-02-02T12:49:02.680Z,102334.56
2023-02-02T12:51:37.736Z,102330.72
2023-02-02T12:54:34.266Z,102328.19
2023-02-02T12:57:19.085Z,102318.25
2023-02-02T13:00:16.324Z,102314.69
2023-02-02T13:02:59.900Z,102324.84
2023-02-02T13:09:22.494Z,102334.06
2023-02-02T13:12:02.489Z,102336.81
2023-02-02T13:14:41.681Z,102328.88
2023-02-02T13:17:38.956Z,102325.00
2023-02-02T13:20:18.354Z,102334.06
2023-02-02T13:22:44.390Z,102324.72
2023-02-02T13:25:19.247Z,102328.56
2023-02-02T13:27:42.162Z,102327.75
2023-02-02T13:30:18.774Z,102321.22
2023-02-02T13:32:46.204Z,102323.44
2023-02-02T13:35:36.893Z,102321.56
2023-02-02T13:38:26.630Z,102326.00
2023-02-02T13:40:50.995Z,102326.31
2023-02-02T13:43:24.858Z,102328.03
2023-02-02T13:46:46.370Z,102329.47
2023-02-02T13:49:23.609Z,102338.06
2023-02-02T13:51:50.504Z,102335.38
2023-02-02T13:54:51.722Z,102323.00
2023-02-02T13:57:13.187Z,102326.56
2023-02-02T14:00:21.849Z,102329.31
2023-02-02T14:03:02.656Z,102335.63
2023-02-02T14:05:30.885Z,102338.94
2023-02-02T14:08:07.165Z,102339.75
2023-02-02T14:10:56.345Z,102341.41
2023-02-02T14:13:49.784Z,102343.03
2023-02-02T14:16:45.602Z,102337.53
2023-02-02T14:19:34.978Z,102352.41
2023-02-02T14:22:08.677Z,102359.53
2023-02-02T14:24:36.244Z,102354.03
2023-02-02T14:27:22.285Z,102360.34
2023-02-02T14:29:47.234Z,102351.81
2023-02-02T14:32:29.952Z,102356.19
2023-02-02T14:34:55.860Z,102357.31
2023-02-02T14:37:32.004Z,102358.13
2023-02-02T14:40:12.448Z,102359.78
2023-02-02T14:43:40.319Z,102356.19
2023-02-02T14:46:14.015Z,102358.41
2023-02-02T14:48:38.965Z,102367.50
2023-02-02T14:51:02.739Z,102370.00
2023-02-02T14:53:37.640Z,102375.28
2023-02-02T14:56:09.543Z,102373.38
2023-02-02T14:58:38.783Z,102377.00
2023-02-02T15:01:24.554Z,102378.66
2023-02-02T15:03:55.623Z,102375.69
2023-02-02T15:06:42.089Z,102376.75
2023-02-02T15:09:28.247Z,102372.41
2023-02-02T15:12:00.850Z,102391.72
2023-02-02T15:14:30.885Z,102384.31
2023-02-02T15:16:55.050Z,102390.66
2023-02-02T15:19:38.745Z,102390.13
2023-02-02T15:22:29.964Z,102390.69
2023-02-02T15:24:54.272Z,102387.94
2023-02-02T15:27:22.750Z,102397.59
2023-02-02T15:29:52.648Z,102383.56
2023-02-02T15:32:24.242Z,102388.78
2023-02-02T15:44:01.190Z,102387.19
2023-02-02T15:46:32.544Z,102394.34
2023-02-02T15:49:33.218Z,102390.47
2023-02-02T15:52:01.377Z,102403.97
2023-02-02T15:54:32.943Z,102410.56
2023-02-02T15:56:58.429Z,102403.97
2023-02-02T15:59:25.908Z,102396.81
2023-02-02T16:01:53.197Z,102400.38
2023-02-02T16:04:26.504Z,102409.47
2023-02-02T16:06:50.244Z,102407.28
2023-02-02T16:09:34.152Z,102417.16
2023-02-02T16:11:55.893Z,102413.31
2023-02-02T16:14:18.053Z,102421.00
2023-02-02T16:16:40.695Z,102417.75
2023-02-02T16:19:06.301Z,102430.94
2023-02-02T16:21:29.904Z,102446.06
2023-02-02T16:23:52.862Z,102430.41
2023-02-02T16:26:17.159Z,102441.13
2023-02-02T16:28:40.631Z,102437.53
2023-02-02T16:31:03.306Z,102444.41
2023-02-02T16:33:42.780Z,102446.06
2023-02-02T16:36:24.449Z,102442.50
2023-02-02T16:38:47.090Z,102446.63
2023-02-02T16:41:28.003Z,102456.22
2023-02-02T16:43:49.721Z,102449.63
2023-02-02T16:46:15.243Z,102455.69
2023-02-02T16:48:42.545Z,102465.56
2023-02-02T16:51:16.190Z,102463.94
2023-02-02T16:53:38.293Z,102471.63
2023-02-02T16:55:59.955Z,102475.47
2023-02-02T16:58:24.917Z,102467.53
2023-02-02T17:01:16.658Z,102462.03
2023-02-02T17:03:49.474Z,102467.53
2023-02-02T17:06:11.568Z,102459.84
2023-02-02T17:08:39.200Z,102479.88
2023-02-02T17:11:23.791Z,102477.13
2023-02-02T17:13:45.683Z,102477.13
2023-02-02T17:16:13.809Z,102480.16
2023-02-02T17:18:35.407Z,102481.81
2023-02-02T17:21:04.131Z,102482.63
2023-02-02T17:23:28.780Z,102480.69
2023-02-02T17:25:50.606Z,102476.00
2023-02-02T17:28:18.076Z,102477.13
2023-02-02T17:30:42.320Z,102477.13
2023-02-02T17:33:03.904Z,102485.38
2023-02-02T17:35:32.627Z,102486.19
2023-02-02T17:37:58.766Z,102486.75
2023-02-02T17:40:23.827Z,102496.06
2023-02-02T17:42:50.667Z,102488.66
2023-02-02T17:45:23.332Z,102488.38
2023-02-02T17:47:45.212Z,102487.81
2023-02-02T17:50:07.049Z,102488.38
2023-02-02T17:52:28.588Z,102488.09
2023-02-02T17:54:50.151Z,102494.16
2023-02-02T17:57:11.841Z,102487.84
2023-02-02T17:59:33.446Z,102483.97
2023-02-02T18:01:55.623Z,102491.94
2023-02-02T18:04:17.395Z,102486.44
2023-02-02T18:06:39.990Z,102478.47
2023-02-02T18:09:01.737Z,102480.41
2023-02-02T18:11:23.370Z,102480.94
2023-02-02T18:13:45.110Z,102479.28
2023-02-02T18:16:07.329Z,102480.94
2023-02-02T18:18:29.824Z,102472.97
2023-02-02T18:20:51.745Z,102476.81
2023-02-02T18:23:15.200Z,102478.19
2023-02-02T18:25:37.722Z,102475.13
2023-02-02T18:28:00.553Z,102470.50
2023-02-02T18:30:22.066Z,102467.16
2023-02-02T18:32:43.691Z,102466.63
2023-02-02T18:35:08.260Z,102466.88
2023-02-02T18:37:29.802Z,102466.06
2023-02-02T18:39:52.562Z,102466.88
2023-02-02T18:42:14.619Z,102460.28
2023-02-02T18:44:38.428Z,102462.22
2023-02-02T18:46:59.973Z,102455.06
2023-02-02T18:49:21.684Z,102455.63
2023-02-02T18:51:43.620Z,102459.75
2023-02-02T18:54:05.194Z,102463.31
2023-02-02T18:56:29.153Z,102446.28
2023-02-02T18:58:51.412Z,102450.66
2023-02-02T19:01:17.749Z,102453.66
2023-02-02T19:03:40.815Z,102457.50
2023-02-02T19:06:23.691Z,102456.69
2023-02-02T19:08:45.299Z,102468.22
2023-02-02T19:11:19.529Z,102465.19
2023-02-02T19:13:41.326Z,102467.38
2023-02-02T19:16:14.161Z,102461.03
2023-02-02T19:18:36.613Z,102459.69
2023-02-02T19:20:58.190Z,102469.28
2023-02-02T19:23:23.670Z,102466.28
2023-02-02T19:25:54.079Z,102467.09
2023-02-02T19:28:31.217Z,102461.03
2023-02-02T19:30:56.477Z,102463.25
2023-02-02T19:33:19.628Z,102464.06
2023-02-02T19:35:46.513Z,102455.00
2023-02-02T19:38:13.927Z,102455.53
2023-02-02T19:40:35.983Z,102457.19
2023-02-02T19:43:10.597Z,102456.06
2023-02-02T19:45:34.487Z,102452.22
2023-02-02T19:48:00.191Z,102448.63
2023-02-02T19:50:27.658Z,102454.97
2023-02-02T19:52:50.881Z,102455.53
2023-02-02T19:55:22.921Z,102453.28
2023-02-02T19:57:44.661Z,102459.91
2023-02-02T20:00:24.389Z,102447.28
2023-02-02T20:03:35.175Z,102452.78
2023-02-02T20:05:57.878Z,102459.34
2023-02-02T20:08:35.644Z,102454.66
2023-02-02T20:11:23.916Z,102451.09
2023-02-02T20:13:48.327Z,102454.41
2023-02-02T20:16:20.617Z,102456.03
2023-02-02T20:18:48.542Z,102454.66
2023-02-02T20:21:22.478Z,102458.50
2023-02-02T20:23:46.091Z,102451.66
2023-02-02T20:26:36.171Z,102454.66
2023-02-02T20:29:03.230Z,102457.72
2023-02-02T20:31:36.820Z,102464.84
2023-02-02T20:33:58.547Z,102473.66
2023-02-02T20:36:38.737Z,102471.72
2023-02-02T20:39:26.357Z,102475.28
2023-02-02T20:41:48.262Z,102470.91
2023-02-02T20:44:11.010Z,102469.50
2023-02-02T20:46:32.636Z,102480.50
2023-02-02T20:48:54.279Z,102470.63
2023-02-02T20:51:15.894Z,102479.69
2023-02-02T20:53:39.300Z,102482.44
2023-02-02T20:56:02.685Z,102479.69
2023-02-02T20:58:25.206Z,102495.63
2023-02-02T21:00:46.829Z,102495.34
2023-02-02T21:03:08.612Z,102486.25
2023-02-02T21:05:31.030Z,102485.97
2023-02-02T21:07:54.925Z,102488.47
2023-02-02T21:10:16.635Z,102487.06
2023-02-02T21:12:38.285Z,102487.31
2023-02-02T21:15:01.537Z,102476.03
2023-02-02T21:17:23.193Z,102474.63
2023-02-02T21:19:45.208Z,102470.22
2023-02-02T21:22:06.858Z,102477.94
2023-02-02T21:24:28.520Z,102487.00
2023-02-02T21:26:52.435Z,102488.94
2023-02-02T21:29:14.157Z,102493.03
2023-02-02T21:31:40.090Z,102482.03
2023-02-02T21:34:02.583Z,102485.88
2023-02-02T21:36:46.495Z,102493.28
2023-02-02T21:39:23.252Z,102483.94
2023-02-02T21:41:45.448Z,102486.97
2023-02-02T21:44:17.904Z,102486.16
2023-02-02T21:46:40.361Z,102474.34
2023-02-02T21:49:03.628Z,102491.34
2023-02-02T21:51:33.889Z,102473.47
2023-02-02T21:53:58.111Z,102481.19
2023-02-02T21:56:33.957Z,102474.00
2023-02-02T21:59:00.745Z,102478.41
2023-02-02T22:01:32.869Z,102481.16
2023-02-02T22:03:54.959Z,102490.50
2023-02-02T22:06:36.694Z,102485.00
2023-02-02T22:09:25.664Z,102485.00
2023-02-02T22:11:58.434Z,102481.16
2023-02-02T22:14:37.093Z,102483.59
2023-02-02T22:16:59.568Z,102470.16
2023-02-02T22:19:28.787Z,102477.28
2023-02-02T22:21:50.497Z,102481.16
2023-02-02T22:24:12.832Z,102489.09
2023-02-02T22:26:34.488Z,102473.44
2023-02-02T22:28:56.484Z,102474.53
2023-02-02T22:31:18.023Z,102469.03
2023-02-02T22:33:39.648Z,102458.03
2023-02-02T22:36:01.283Z,102472.91
2023-02-02T22:38:25.143Z,102461.59
2023-02-02T22:40:48.320Z,102475.06
2023-02-02T22:43:10.012Z,102483.88
2023-02-02T22:45:32.600Z,102481.41
2023-02-02T22:47:54.787Z,102473.44
2023-02-02T22:50:20.842Z,102483.59
2023-02-02T22:52:43.328Z,102479.47
2023-02-02T22:55:05.336Z,102478.38
2023-02-02T22:57:26.975Z,102472.06
2023-02-02T22:59:48.511Z,102465.97
2023-02-02T23:02:10.016Z,102471.75
2023-02-02T23:04:31.545Z,102481.66
2023-02-02T23:06:53.062Z,102480.00
2023-02-02T23:09:14.644Z,102476.16
2023-02-02T23:11:36.249Z,102476.97
2023-02-02T23:13:57.808Z,102470.94
2023-02-02T23:16:19.527Z,102457.19
2023-02-02T23:18:41.195Z,102456.34
2023-02-02T23:21:02.788Z,102451.94
2023-02-02T23:23:25.187Z,102442.88
2023-02-02T23:25:46.740Z,102438.78
2023-02-02T23:28:10.395Z,102415.94
2023-02-02T23:30:32.107Z,102418.69
2023-02-02T23:32:53.754Z,102407.41
2023-02-02T23:35:15.781Z,102394.75
2023-02-02T23:37:37.703Z,102400.81
2023-02-02T23:39:59.384Z,102399.16
2023-02-02T23:42:20.961Z,102391.47
2023-02-02T23:44:42.768Z,102401.38
2023-02-02T23:47:04.994Z,102396.97
2023-02-02T23:49:26.627Z,102398.09
2023-02-02T23:51:48.429Z,102408.50
2023-02-02T23:54:12.859Z,102410.72
2023-02-02T23:56:34.400Z,102411.31
2023-02-02T23:58:55.989Z,102399.75
